createdAt,value
2019-03-16T00:00:15.681Z,5.53
2019-03-16T00:02:46.772Z,8.13
2019-03-16T00:05:16.242Z,13.03
2019-03-16T00:07:45.716Z,8.83
2019-03-16T00:10:15.170Z,7.43
2019-03-16T00:12:44.647Z,16.27
2019-03-16T00:15:14.091Z,9.23
2019-03-16T00:17:43.583Z,6.53
2019-03-16T00:20:13.371Z,10.87
2019-03-16T00:22:42.855Z,14.60
2019-03-16T00:25:12.316Z,8.40
2019-03-16T00:27:41.801Z,10.07
2019-03-16T00:30:13.872Z,6.97
2019-03-16T00:32:43.364Z,9.80
2019-03-16T00:35:12.889Z,11.00
2019-03-16T00:37:42.383Z,10.57
2019-03-16T00:40:13.071Z,15.00
2019-03-16T00:42:42.560Z,14.00
2019-03-16T00:45:12.751Z,11.87
2019-03-16T00:47:42.239Z,15.77
2019-03-16T00:50:12.834Z,9.07
2019-03-16T00:52:42.303Z,10.23
2019-03-16T00:55:12.027Z,11.97
2019-03-16T00:57:41.581Z,11.13
2019-03-16T01:00:13.537Z,7.27
2019-03-16T01:02:43.012Z,13.17
2019-03-16T01:05:12.719Z,18.70
2019-03-16T01:07:42.185Z,18.83
2019-03-16T01:10:11.871Z,9.90
2019-03-16T01:12:41.371Z,8.20
2019-03-16T01:15:12.412Z,12.50
2019-03-16T01:17:41.847Z,7.03
2019-03-16T01:20:12.563Z,10.93
2019-03-16T01:22:42.208Z,9.60
2019-03-16T01:25:13.057Z,13.60
2019-03-16T01:27:42.603Z,12.60
2019-03-16T01:30:18.003Z,12.60
2019-03-16T01:32:47.479Z,7.67
2019-03-16T01:35:16.947Z,8.07
2019-03-16T01:37:46.425Z,13.77
2019-03-16T01:40:15.900Z,11.70
2019-03-16T01:42:45.409Z,7.40
2019-03-16T01:45:14.874Z,12.27
2019-03-16T01:47:44.348Z,14.07
2019-03-16T01:50:13.941Z,11.13
2019-03-16T01:52:43.437Z,9.23
2019-03-16T01:55:12.898Z,11.27
2019-03-16T01:57:42.371Z,9.00
2019-03-16T02:00:13.465Z,13.87
2019-03-16T02:02:54.561Z,6.57
2019-03-16T02:05:14.180Z,10.83
2019-03-16T02:07:43.765Z,12.80
2019-03-16T02:10:13.264Z,10.90
2019-03-16T02:12:42.741Z,14.30
2019-03-16T02:15:12.191Z,11.03
2019-03-16T02:17:41.679Z,11.70
2019-03-16T02:20:11.188Z,9.27
2019-03-16T02:22:41.739Z,9.47
2019-03-16T02:25:11.332Z,11.97
2019-03-16T02:27:40.814Z,9.33
2019-03-16T02:30:12.158Z,13.03
2019-03-16T02:32:41.643Z,9.10
2019-03-16T02:35:11.157Z,13.90
2019-03-16T02:37:40.654Z,8.63
2019-03-16T02:40:11.069Z,10.73
2019-03-16T02:42:40.552Z,20.37
2019-03-16T02:45:10.721Z,4.23
2019-03-16T02:47:40.239Z,10.77
2019-03-16T02:50:11.329Z,6.63
2019-03-16T02:52:40.808Z,9.53
2019-03-16T02:55:10.272Z,12.90
2019-03-16T02:57:39.758Z,14.37
2019-03-16T03:00:13.341Z,14.90
2019-03-16T03:02:42.847Z,11.13
2019-03-16T03:05:12.927Z,14.73
2019-03-16T03:07:42.410Z,15.07
2019-03-16T03:10:13.905Z,13.87
2019-03-16T03:12:43.383Z,9.97
2019-03-16T03:15:12.971Z,12.13
2019-03-16T03:17:42.443Z,9.87
2019-03-16T03:20:13.024Z,13.27
2019-03-16T03:22:43.477Z,11.97
2019-03-16T03:25:12.998Z,9.57
2019-03-16T03:27:42.472Z,12.77
2019-03-16T03:30:13.535Z,8.27
2019-03-16T03:32:43.049Z,11.23
2019-03-16T03:35:12.685Z,8.70
2019-03-16T03:37:42.105Z,15.30
2019-03-16T03:40:12.505Z,11.17
2019-03-16T03:42:41.980Z,12.40
2019-03-16T03:45:12.583Z,12.67
2019-03-16T03:47:42.086Z,12.67
2019-03-16T03:50:13.733Z,10.70
2019-03-16T03:52:44.188Z,10.10
2019-03-16T03:55:14.674Z,12.37
2019-03-16T03:57:44.179Z,10.60
2019-03-16T04:00:18.016Z,14.57
2019-03-16T04:02:47.597Z,8.83
2019-03-16T04:05:17.029Z,12.27
2019-03-16T04:07:46.489Z,12.80
2019-03-16T04:10:16.027Z,11.03
2019-03-16T04:12:45.489Z,15.57
2019-03-16T04:15:15.082Z,12.73
2019-03-16T04:17:44.646Z,13.73
2019-03-16T04:20:15.200Z,10.33
2019-03-16T04:22:44.687Z,12.53
2019-03-16T04:25:14.156Z,9.87
2019-03-16T04:27:43.621Z,10.93
2019-03-16T04:30:13.425Z,11.17
2019-03-16T04:32:42.876Z,11.10
2019-03-16T04:35:12.346Z,11.77
2019-03-16T04:37:42.160Z,15.93
2019-03-16T04:40:12.108Z,9.40
2019-03-16T04:42:41.558Z,12.13
2019-03-16T04:45:11.524Z,13.97
2019-03-16T04:47:40.955Z,16.97
2019-03-16T04:50:12.248Z,21.07
2019-03-16T04:52:41.705Z,14.27
2019-03-16T04:55:11.257Z,16.80
2019-03-16T04:57:41.779Z,13.43
2019-03-16T05:00:12.895Z,15.43
2019-03-16T05:02:42.352Z,7.00
2019-03-16T05:05:11.993Z,11.37
2019-03-16T05:07:41.506Z,13.30
2019-03-16T05:10:11.963Z,16.83
2019-03-16T05:12:41.429Z,15.63
2019-03-16T05:15:10.899Z,17.90
2019-03-16T05:17:40.436Z,15.53
2019-03-16T05:20:12.016Z,7.40
2019-03-16T05:22:41.468Z,9.17
2019-03-16T05:25:11.887Z,7.27
2019-03-16T05:27:41.328Z,8.03
2019-03-16T05:30:13.019Z,5.97
2019-03-16T05:32:42.523Z,8.40
2019-03-16T05:35:13.110Z,6.73
2019-03-16T05:37:42.564Z,11.73
2019-03-16T05:40:12.111Z,8.03
2019-03-16T05:42:41.559Z,6.67
2019-03-16T05:45:11.217Z,6.80
2019-03-16T05:47:40.670Z,3.53
2019-03-16T05:50:12.073Z,9.87
2019-03-16T05:52:41.535Z,6.40
2019-03-16T05:55:11.076Z,4.10
2019-03-16T05:57:41.606Z,5.90
2019-03-16T06:00:17.089Z,7.67
2019-03-16T06:02:46.537Z,5.93
2019-03-16T06:05:16.003Z,4.47
2019-03-16T06:07:45.451Z,5.13
2019-03-16T06:10:15.997Z,6.60
2019-03-16T06:12:46.779Z,6.97
2019-03-16T06:15:16.418Z,9.90
2019-03-16T06:17:45.927Z,6.60
2019-03-16T06:20:15.671Z,12.43
2019-03-16T06:22:46.086Z,9.23
2019-03-16T06:25:15.556Z,11.13
2019-03-16T06:27:45.009Z,12.10
2019-03-16T06:30:16.032Z,12.57
2019-03-16T06:32:45.487Z,10.37
2019-03-16T06:35:24.485Z,11.73
2019-03-16T06:37:46.166Z,8.60
2019-03-16T06:40:15.640Z,7.20
2019-03-16T06:42:45.088Z,10.23
2019-03-16T06:45:15.634Z,8.83
2019-03-16T06:47:45.085Z,6.33
2019-03-16T06:50:15.597Z,8.63
2019-03-16T06:52:45.043Z,11.07
2019-03-16T06:55:14.857Z,11.27
2019-03-16T06:57:44.300Z,9.30
2019-03-16T07:00:15.511Z,13.93
2019-03-16T07:02:44.963Z,6.30
2019-03-16T07:05:14.674Z,9.43
2019-03-16T07:07:44.129Z,13.57
2019-03-16T07:10:14.339Z,3.57
2019-03-16T07:12:43.792Z,9.30
2019-03-16T07:15:15.472Z,4.87
2019-03-16T07:17:44.924Z,8.90
2019-03-16T07:20:15.467Z,10.13
2019-03-16T07:22:44.918Z,6.63
2019-03-16T07:25:14.375Z,19.50
2019-03-16T07:27:43.863Z,12.30
2019-03-16T07:30:16.254Z,7.23
2019-03-16T07:32:45.722Z,10.10
2019-03-16T07:35:15.175Z,9.30
2019-03-16T07:37:44.650Z,10.33
2019-03-16T07:40:14.680Z,16.77
2019-03-16T07:42:44.150Z,10.67
2019-03-16T07:45:13.848Z,12.07
2019-03-16T07:47:43.325Z,10.80
2019-03-16T07:50:14.414Z,10.73
2019-03-16T07:52:43.888Z,11.10
2019-03-16T07:55:13.486Z,9.70
2019-03-16T07:57:42.946Z,9.50
2019-03-16T08:00:13.046Z,7.23
2019-03-16T08:02:42.524Z,11.67
2019-03-16T08:05:18.902Z,10.57
2019-03-16T08:07:43.086Z,11.57
2019-03-16T08:10:13.084Z,6.43
2019-03-16T08:12:42.911Z,7.73
2019-03-16T08:15:12.756Z,11.47
2019-03-16T08:17:42.665Z,15.47
2019-03-16T08:20:12.938Z,7.17
2019-03-16T08:22:42.783Z,9.57
2019-03-16T08:25:12.671Z,8.17
2019-03-16T08:27:53.452Z,9.43
2019-03-16T08:30:14.143Z,7.83
2019-03-16T08:32:43.764Z,8.43
2019-03-16T08:35:13.276Z,14.37
2019-03-16T08:37:42.754Z,9.93
2019-03-16T08:40:12.273Z,9.70
2019-03-16T08:42:41.752Z,12.00
2019-03-16T08:45:11.547Z,14.67
2019-03-16T08:47:41.011Z,7.60
2019-03-16T08:50:11.199Z,8.07
2019-03-16T08:52:40.676Z,7.17
2019-03-16T08:55:10.564Z,7.80
2019-03-16T08:57:40.043Z,12.63
2019-03-16T09:00:11.539Z,8.63
2019-03-16T09:02:41.020Z,10.53
2019-03-16T09:05:10.532Z,8.70
2019-03-16T09:07:40.002Z,16.37
2019-03-16T09:10:10.961Z,11.00
2019-03-16T09:12:40.435Z,9.00
2019-03-16T09:15:14.591Z,9.73
2019-03-16T09:17:44.071Z,12.70
2019-03-16T09:20:13.596Z,10.30
2019-03-16T09:22:43.131Z,9.30
2019-03-16T09:25:12.727Z,10.70
2019-03-16T09:27:42.211Z,12.07
2019-03-16T09:30:13.971Z,10.10
2019-03-16T09:32:43.472Z,11.23
2019-03-16T09:35:12.979Z,13.50
2019-03-16T09:37:42.456Z,11.90
2019-03-16T09:40:12.169Z,6.50
2019-03-16T09:42:41.647Z,7.50
2019-03-16T09:45:12.144Z,11.97
2019-03-16T09:47:41.685Z,6.87
2019-03-16T09:50:11.505Z,7.07
2019-03-16T09:52:40.967Z,7.67
2019-03-16T09:55:13.823Z,7.23
2019-03-16T09:57:43.324Z,7.87
2019-03-16T10:00:18.981Z,7.57
2019-03-16T10:02:48.460Z,9.53
2019-03-16T10:05:17.918Z,5.53
2019-03-16T10:07:47.384Z,6.27
2019-03-16T10:10:16.906Z,6.37
2019-03-16T10:12:46.373Z,5.67
2019-03-16T10:15:15.837Z,9.77
2019-03-16T10:17:45.300Z,6.23
2019-03-16T10:20:15.189Z,6.63
2019-03-16T10:22:44.663Z,10.53
2019-03-16T10:25:14.115Z,11.03
2019-03-16T10:27:43.592Z,10.90
2019-03-16T10:30:14.188Z,11.60
2019-03-16T10:32:43.741Z,11.73
2019-03-16T10:35:14.160Z,15.53
2019-03-16T10:37:43.639Z,13.87
2019-03-16T10:40:14.035Z,13.97
2019-03-16T10:42:43.507Z,15.50
2019-03-16T10:45:13.106Z,17.70
2019-03-16T10:47:42.586Z,15.67
2019-03-16T10:50:13.185Z,15.93
2019-03-16T10:52:42.827Z,17.00
2019-03-16T10:55:13.363Z,20.60
2019-03-16T10:57:42.846Z,15.57
2019-03-16T11:00:15.140Z,18.47
2019-03-16T11:02:44.591Z,16.87
2019-03-16T11:05:14.107Z,21.23
2019-03-16T11:07:43.592Z,19.70
2019-03-16T11:10:14.186Z,18.20
2019-03-16T11:12:43.662Z,12.60
2019-03-16T11:15:14.165Z,16.03
2019-03-16T11:17:43.644Z,13.20
2019-03-16T11:20:17.234Z,11.83
2019-03-16T11:22:46.768Z,11.03
2019-03-16T11:25:16.266Z,10.60
2019-03-16T11:27:45.748Z,11.30
2019-03-16T11:30:16.322Z,9.67
2019-03-16T11:32:45.800Z,14.17
2019-03-16T11:35:16.222Z,11.83
2019-03-16T11:37:45.729Z,10.77
2019-03-16T11:40:19.985Z,10.87
2019-03-16T11:43:00.169Z,7.40
2019-03-16T11:45:30.562Z,8.83
2019-03-16T11:48:02.926Z,10.60
2019-03-16T11:50:37.742Z,8.30
2019-03-16T11:53:07.213Z,12.33
2019-03-16T11:55:36.659Z,9.80
2019-03-16T11:58:06.138Z,12.90
2019-03-16T12:00:37.599Z,10.63
2019-03-16T12:03:07.155Z,13.60
2019-03-16T12:05:36.606Z,11.57
2019-03-16T12:08:06.081Z,11.93
2019-03-16T12:10:35.544Z,12.57
2019-03-16T12:13:16.785Z,13.30
2019-03-16T12:15:42.767Z,11.93
2019-03-16T12:18:12.243Z,9.63
2019-03-16T12:20:41.695Z,12.20
2019-03-16T12:23:11.241Z,8.23
2019-03-16T12:25:40.687Z,10.53
2019-03-16T12:28:10.141Z,11.13
2019-03-16T12:30:39.619Z,8.27
2019-03-16T12:33:09.070Z,10.07
2019-03-16T12:35:38.585Z,7.10
2019-03-16T12:38:08.039Z,9.73
2019-03-16T12:40:37.521Z,16.27
2019-03-16T12:43:06.975Z,9.50
2019-03-16T12:45:36.463Z,10.37
2019-03-16T12:48:05.922Z,5.77
2019-03-16T12:50:35.469Z,9.33
2019-03-16T12:53:04.863Z,11.30
2019-03-16T12:55:35.580Z,9.27
2019-03-16T12:58:05.008Z,7.53
2019-03-16T13:00:34.548Z,6.63
2019-03-16T13:03:04.013Z,6.50
2019-03-16T13:05:33.487Z,6.53
2019-03-16T13:08:02.947Z,6.00
2019-03-16T13:10:32.428Z,8.03
2019-03-16T13:13:01.882Z,11.13
2019-03-16T13:15:31.366Z,10.07
2019-03-16T13:18:00.819Z,9.40
2019-03-16T13:20:30.294Z,7.50
2019-03-16T13:22:59.744Z,8.90
2019-03-16T13:25:29.224Z,9.63
2019-03-16T13:27:58.675Z,8.10
2019-03-16T13:30:28.148Z,7.60
2019-03-16T13:32:57.604Z,7.53
2019-03-16T13:35:27.088Z,11.90
2019-03-16T13:37:56.548Z,7.80
2019-03-16T13:40:26.033Z,6.27
2019-03-16T13:42:55.484Z,8.03
2019-03-16T13:45:24.956Z,8.30
2019-03-16T13:47:54.418Z,9.83
2019-03-16T13:50:23.899Z,10.27
2019-03-16T13:52:53.659Z,12.70
2019-03-16T13:55:23.148Z,10.10
2019-03-16T13:57:52.603Z,6.40
2019-03-16T14:00:22.457Z,10.30
2019-03-16T14:02:51.915Z,13.27
2019-03-16T14:05:21.391Z,9.63
2019-03-16T14:07:50.849Z,7.47
2019-03-16T14:10:29.050Z,15.23
2019-03-16T14:12:58.510Z,10.17
2019-03-16T14:15:27.991Z,6.07
2019-03-16T14:17:58.232Z,8.87
2019-03-16T14:20:28.195Z,5.03
2019-03-16T14:22:57.913Z,5.03
2019-03-16T14:25:27.415Z,8.23
2019-03-16T14:27:56.842Z,9.17
2019-03-16T14:30:40.511Z,5.27
2019-03-16T14:32:57.391Z,7.67
2019-03-16T14:35:26.869Z,4.93
2019-03-16T14:37:56.318Z,5.47
2019-03-16T14:40:26.292Z,7.70
2019-03-16T14:42:55.728Z,10.03
2019-03-16T14:45:25.509Z,10.23
2019-03-16T14:47:54.967Z,6.17
2019-03-16T14:50:26.182Z,6.57
2019-03-16T14:52:55.635Z,5.03
2019-03-16T14:55:25.111Z,7.70
2019-03-16T14:57:54.561Z,5.47
2019-03-16T15:00:37.302Z,6.63
2019-03-16T15:02:55.112Z,6.60
2019-03-16T15:05:24.655Z,6.30
2019-03-16T15:08:13.448Z,4.67
2019-03-16T15:10:42.920Z,8.53
2019-03-16T15:13:13.353Z,7.67
2019-03-16T15:15:42.827Z,8.20
2019-03-16T15:18:12.285Z,9.33
2019-03-16T15:20:41.773Z,5.30
2019-03-16T15:23:16.529Z,5.70
2019-03-16T15:25:47.228Z,5.70
2019-03-16T15:28:19.455Z,7.20
2019-03-16T15:30:52.986Z,9.17
2019-03-16T15:33:22.799Z,7.03
2019-03-16T15:35:52.946Z,8.10
2019-03-16T15:38:23.487Z,7.17
2019-03-16T15:40:53.147Z,9.60
2019-03-16T15:43:24.148Z,7.37
2019-03-16T15:45:56.646Z,6.97
2019-03-16T15:48:26.554Z,6.33
2019-03-16T15:50:56.151Z,4.93
2019-03-16T15:53:27.072Z,6.83
2019-03-16T15:55:56.706Z,5.63
2019-03-16T15:58:27.618Z,8.53
2019-03-16T16:01:03.529Z,4.83
2019-03-16T16:03:28.641Z,4.70
2019-03-16T16:05:58.226Z,3.07
2019-03-16T16:08:27.669Z,2.63
2019-03-16T16:11:01.322Z,6.23
2019-03-16T16:13:28.208Z,2.60
2019-03-16T16:15:57.683Z,4.23
2019-03-16T16:18:27.140Z,4.10
2019-03-16T16:20:56.620Z,4.23
2019-03-16T16:23:26.077Z,4.33
2019-03-16T16:25:55.630Z,4.07
2019-03-16T16:28:25.084Z,5.23
2019-03-16T16:30:54.561Z,5.17
2019-03-16T16:33:24.019Z,3.83
2019-03-16T16:35:53.495Z,6.30
2019-03-16T16:38:22.951Z,2.17
2019-03-16T16:40:52.429Z,3.30
2019-03-16T16:43:21.888Z,2.40
2019-03-16T16:45:51.370Z,6.07
2019-03-16T16:48:20.814Z,3.70
2019-03-16T16:50:50.296Z,8.20
2019-03-16T16:53:19.757Z,3.37
2019-03-16T16:55:50.299Z,3.60
2019-03-16T16:58:19.758Z,3.80
2019-03-16T17:00:49.239Z,5.93
2019-03-16T17:03:18.790Z,3.00
2019-03-16T17:05:48.251Z,3.73
2019-03-16T17:08:17.731Z,4.27
2019-03-16T17:10:47.180Z,3.50
2019-03-16T17:13:16.727Z,4.70
2019-03-16T17:15:46.180Z,2.47
2019-03-16T17:18:15.663Z,2.47
2019-03-16T17:20:45.115Z,5.30
2019-03-16T17:23:14.600Z,8.93
2019-03-16T17:25:44.057Z,4.83
2019-03-16T17:28:14.599Z,3.47
2019-03-16T17:30:44.062Z,4.60
2019-03-16T17:33:13.535Z,4.47
2019-03-16T17:35:42.988Z,4.47
2019-03-16T17:38:12.471Z,2.80
2019-03-16T17:40:41.935Z,6.00
2019-03-16T17:43:11.415Z,5.87
2019-03-16T17:45:42.344Z,3.80
2019-03-16T17:48:11.805Z,3.80
2019-03-16T17:50:41.253Z,3.30
2019-03-16T17:53:10.802Z,7.20
2019-03-16T17:55:40.260Z,4.93
2019-03-16T17:58:09.730Z,2.87
2019-03-16T18:00:39.187Z,4.67
2019-03-16T18:03:08.726Z,5.77
2019-03-16T18:05:38.184Z,6.80
2019-03-16T18:08:07.663Z,4.77
2019-03-16T18:10:37.127Z,2.57
2019-03-16T18:13:06.670Z,5.40
2019-03-16T18:15:36.123Z,6.40
2019-03-16T18:18:05.674Z,8.80
2019-03-16T18:20:35.127Z,4.13
2019-03-16T18:23:04.607Z,5.57
2019-03-16T18:25:34.055Z,5.90
2019-03-16T18:28:04.612Z,4.77
2019-03-16T18:30:34.063Z,2.60
2019-03-16T18:33:03.534Z,4.57
2019-03-16T18:35:32.991Z,6.43
2019-03-16T18:38:02.463Z,3.00
2019-03-16T18:40:31.920Z,5.87
2019-03-16T18:43:01.411Z,5.70
2019-03-16T18:45:32.699Z,4.70
2019-03-16T18:48:02.188Z,6.20
2019-03-16T18:50:31.912Z,2.80
2019-03-16T18:53:01.388Z,6.83
2019-03-16T18:55:30.847Z,5.13
2019-03-16T18:58:00.324Z,6.07
2019-03-16T19:00:29.780Z,4.40
2019-03-16T19:03:00.324Z,3.73
2019-03-16T19:05:29.845Z,3.40
2019-03-16T19:07:59.327Z,4.17
2019-03-16T19:10:28.780Z,4.50
2019-03-16T19:12:58.329Z,3.90
2019-03-16T19:15:27.783Z,6.20
2019-03-16T19:17:58.971Z,3.13
2019-03-16T19:20:28.332Z,5.27
2019-03-16T19:22:57.820Z,5.73
2019-03-16T19:25:27.273Z,3.93
2019-03-16T19:27:56.744Z,2.83
2019-03-16T19:30:26.191Z,4.63
2019-03-16T19:32:55.667Z,7.17
2019-03-16T19:35:25.122Z,5.13
2019-03-16T19:37:54.579Z,3.57
2019-03-16T19:40:24.632Z,4.93
2019-03-16T19:42:54.542Z,5.07
2019-03-16T19:45:24.145Z,5.27
2019-03-16T19:47:53.695Z,5.37
2019-03-16T19:50:23.160Z,3.23
2019-03-16T19:52:52.603Z,8.17
2019-03-16T19:55:22.078Z,6.80
2019-03-16T19:57:51.640Z,7.33
2019-03-16T20:00:21.121Z,3.23
2019-03-16T20:02:51.664Z,6.53
2019-03-16T20:05:21.454Z,7.10
2019-03-16T20:07:50.900Z,5.50
2019-03-16T20:10:21.382Z,6.70
2019-03-16T20:12:53.045Z,5.27
2019-03-16T20:15:21.971Z,5.70
2019-03-16T20:17:51.430Z,4.40
2019-03-16T20:20:20.908Z,4.10
2019-03-16T20:22:50.359Z,4.77
2019-03-16T20:25:19.891Z,6.90
2019-03-16T20:27:49.298Z,5.33
2019-03-16T20:30:26.681Z,5.27
2019-03-16T20:33:02.662Z,9.00
2019-03-16T20:35:20.947Z,4.80
2019-03-16T20:37:50.402Z,8.73
2019-03-16T20:40:19.955Z,9.00
2019-03-16T20:42:49.425Z,4.83
2019-03-16T20:45:18.932Z,5.60
2019-03-16T20:47:48.554Z,5.50
2019-03-16T20:50:19.071Z,4.57
2019-03-16T20:52:48.531Z,5.17
2019-03-16T20:55:18.082Z,5.23
2019-03-16T20:57:47.543Z,5.13
2019-03-16T21:00:20.347Z,8.93
2019-03-16T21:02:49.795Z,6.87
2019-03-16T21:05:19.270Z,3.97
2019-03-16T21:07:48.758Z,7.90
2019-03-16T21:10:18.238Z,11.43
2019-03-16T21:12:48.051Z,7.07
2019-03-16T21:15:18.439Z,7.03
2019-03-16T21:17:48.757Z,6.97
2019-03-16T21:20:19.296Z,5.60
2019-03-16T21:22:48.811Z,4.87
2019-03-16T21:25:18.451Z,6.67
2019-03-16T21:27:47.982Z,5.93
2019-03-16T21:30:21.279Z,4.43
2019-03-16T21:32:50.724Z,6.23
2019-03-16T21:35:20.198Z,7.13
2019-03-16T21:37:49.657Z,5.93
2019-03-16T21:40:20.197Z,4.17
2019-03-16T21:42:49.655Z,7.67
2019-03-16T21:45:19.132Z,7.13
2019-03-16T21:47:59.623Z,7.80
2019-03-16T21:50:19.700Z,8.17
2019-03-16T21:52:49.219Z,7.60
2019-03-16T21:55:18.696Z,8.00
2019-03-16T21:57:48.154Z,5.37
2019-03-16T22:00:18.071Z,6.33
2019-03-16T22:02:47.519Z,6.77
2019-03-16T22:05:17.063Z,4.30
2019-03-16T22:07:46.520Z,10.20
2019-03-16T22:10:17.143Z,8.70
2019-03-16T22:12:46.596Z,9.73
2019-03-16T22:15:16.918Z,5.07
2019-03-16T22:17:46.451Z,6.17
2019-03-16T22:20:20.700Z,6.60
2019-03-16T22:22:50.161Z,6.73
2019-03-16T22:25:19.647Z,5.43
2019-03-16T22:27:51.603Z,13.57
2019-03-16T22:30:20.271Z,4.80
2019-03-16T22:32:49.726Z,6.90
2019-03-16T22:35:19.199Z,8.80
2019-03-16T22:37:48.652Z,8.37
2019-03-16T22:40:18.128Z,4.40
2019-03-16T22:42:47.576Z,5.97
2019-03-16T22:45:17.222Z,9.20
2019-03-16T22:47:46.678Z,5.63
2019-03-16T22:50:21.070Z,4.67
2019-03-16T22:52:50.577Z,5.23
2019-03-16T22:55:20.031Z,7.07
2019-03-16T22:57:49.483Z,5.87
2019-03-16T23:00:43.236Z,6.73
2019-03-16T23:03:13.156Z,7.90
2019-03-16T23:05:42.639Z,4.37
2019-03-16T23:08:12.160Z,3.40
2019-03-16T23:10:41.645Z,8.33
2019-03-16T23:13:11.099Z,10.03
2019-03-16T23:15:40.588Z,5.60
2019-03-16T23:18:10.036Z,6.13
2019-03-16T23:20:39.520Z,5.07
2019-03-16T23:23:09.018Z,4.73
2019-03-16T23:25:38.447Z,9.07
2019-03-16T23:28:07.975Z,10.50
2019-03-16T23:30:37.524Z,6.33
2019-03-16T23:33:07.149Z,6.80
2019-03-16T23:35:36.698Z,5.93
2019-03-16T23:38:07.269Z,3.97
2019-03-16T23:40:36.720Z,3.60
2019-03-16T23:43:06.175Z,7.47
2019-03-16T23:45:35.639Z,4.73
2019-03-16T23:48:05.126Z,4.90
2019-03-16T23:50:34.580Z,7.10
2019-03-16T23:53:04.131Z,7.30
2019-03-16T23:55:33.656Z,6.57
2019-03-16T23:58:03.129Z,5.83
